Map

Track Data

SID SEASON NUMBER BASIN SUBBASIN NAME ISO_TIME NATURE LAT LON WMO_WIND WMO_PRES WMO_AGENCY TRACK_TYPE DIST2LAND LANDFALL IFLAG USA_AGENCY USA_ATCF_ID USA_LAT USA_LON USA_RECORD USA_STATUS USA_WIND USA_PRES USA_SSHS USA_R34_NE USA_R34_SE USA_R34_SW USA_R34_NW USA_R50_NE USA_R50_SE USA_R50_SW USA_R50_NW USA_R64_NE USA_R64_SE USA_R64_SW USA_R64_NW USA_POCI USA_ROCI USA_RMW USA_EYE TOKYO_LAT TOKYO_LON TOKYO_GRADE TOKYO_WIND TOKYO_PRES TOKYO_R50_DIR TOKYO_R50_LONG TOKYO_R50_SHORT TOKYO_R30_DIR TOKYO_R30_LONG TOKYO_R30_SHORT TOKYO_LAND CMA_LAT CMA_LON CMA_CAT CMA_WIND CMA_PRES HKO_LAT HKO_LON HKO_CAT HKO_WIND HKO_PRES NEWDELHI_LAT NEWDELHI_LON NEWDELHI_GRADE NEWDELHI_WIND NEWDELHI_PRES NEWDELHI_CI NEWDELHI_DP NEWDELHI_POCI REUNION_LAT REUNION_LON REUNION_TYPE REUNION_WIND REUNION_PRES REUNION_TNUM REUNION_CI REUNION_RMW REUNION_R34_NE REUNION_R34_SE REUNION_R34_SW REUNION_R34_NW REUNION_R50_NE REUNION_R50_SE REUNION_R50_SW REUNION_R50_NW REUNION_R64_NE REUNION_R64_SE REUNION_R64_SW REUNION_R64_NW BOM_LAT BOM_LON BOM_TYPE BOM_WIND BOM_PRES BOM_TNUM BOM_CI BOM_RMW BOM_R34_NE BOM_R34_SE BOM_R34_SW BOM_R34_NW BOM_R50_NE BOM_R50_SE BOM_R50_SW BOM_R50_NW BOM_R64_NE BOM_R64_SE BOM_R64_SW BOM_R64_NW BOM_ROCI BOM_POCI BOM_EYE BOM_POS_METHOD BOM_PRES_METHOD NADI_LAT NADI_LON NADI_CAT NADI_WIND NADI_PRES WELLINGTON_LAT WELLINGTON_LON WELLINGTON_WIND WELLINGTON_PRES DS824_LAT DS824_LON DS824_STAGE DS824_WIND DS824_PRES TD9636_LAT TD9636_LON TD9636_STAGE TD9636_WIND TD9636_PRES TD9635_LAT TD9635_LON TD9635_WIND TD9635_PRES TD9635_ROCI NEUMANN_LAT NEUMANN_LON NEUMANN_CLASS NEUMANN_WIND NEUMANN_PRES MLC_LAT MLC_LON MLC_CLASS MLC_WIND MLC_PRES USA_GUST BOM_GUST BOM_GUST_PER REUNION_GUST REUNION_GUST_PER USA_SEAHGT USA_SEARAD_NE USA_SEARAD_SE USA_SEARAD_SW USA_SEARAD_NW STORM_SPEED STORM_DIR
1971255N17158 1971 116 WP MM NOT_NAMED 1971-09-12 00:00:00 TS 17.0000 158.000 main 2340 2340 __O___________ -1 17.0000 158.000 0 1002 7 50
1971255N17158 1971 116 WP MM NOT_NAMED 1971-09-12 03:00:00 TS 17.2376 158.300 main 2372 2372 __P___________ -1 17.2376 158.300 0 1002 8 49
1971255N17158 1971 116 WP MM NOT_NAMED 1971-09-12 06:00:00 TS 17.5000 158.600 main 2415 2415 __O___________ -1 17.5000 158.600 0 1002 8 45
1971255N17158 1971 116 WP MM NOT_NAMED 1971-09-12 09:00:00 TS 17.8000 158.900 main 2458 2458 __P___________ -1 17.8000 158.900 0 1002 8 44
1971255N17158 1971 116 WP MM NOT_NAMED 1971-09-12 12:00:00 TS 18.1000 159.200 main 2501 2501 __O___________ -1 18.1000 159.200 0 1002 8 46
1971255N17158 1971 116 WP MM NOT_NAMED 1971-09-12 15:00:00 TS 18.3650 159.508 main 2544 2544 __P___________ -1 18.3650 159.508 0 1002 8 49
1971255N17158 1971 116 WP MM NOT_NAMED 1971-09-12 18:00:00 TS 18.6000 159.800 main 2577 2577 __O___________ -1 18.6000 159.800 0 1002 7 51
1971255N17158 1971 116 WP MM NOT_NAMED 1971-09-12 21:00:00 TS 18.7924 160.058 main 2610 2610 __P___________ -1 18.7924 160.058 0 1002 6 50
1971255N17158 1971 116 WP MM NOT_NAMED 1971-09-13 00:00:00 TS 19.0000 160.300 main 2639 2639 __O___________ -1 19.0000 160.300 0 1002 7 44
1971255N17158 1971 116 WP MM NOT_NAMED 1971-09-13 03:00:00 TS 19.2850 160.557 main 2658 2647 __P___________ -1 19.2850 160.557 0 1002 8 38
1971255N17158 1971 116 WP MM NOT_NAMED 1971-09-13 06:00:00 TS 19.6000 160.800 main 2647 2637 __O___________ -1 19.6000 160.800 0 1002 8 38
1971255N17158 1971 116 WP MM NOT_NAMED 1971-09-13 09:00:00 TS 19.8775 161.045 main 2637 2628 __P___________ -1 19.8775 161.045 0 1002 7 32
1971255N17158 1971 116 WP MM NOT_NAMED 1971-09-13 12:00:00 TS 20.2000 161.200 main 2628 2596 __O___________ -1 20.2000 161.200 0 19 1002 8 11
1971255N17158 1971 116 WP MM NOT_NAMED 1971-09-13 15:00:00 TS 20.6349 161.210 main 2596 2549 __P___________ -1 20.6349 161.210 0 19 1002 9 354
1971255N17158 1971 116 WP MM NOT_NAMED 1971-09-13 18:00:00 TS 21.1000 161.100 main 2549 2503 __O___________ -1 21.1000 161.100 0 19 1002 9 343
1971255N17158 1971 116 WP MM NOT_NAMED 1971-09-13 21:00:00 TS 21.4925 160.937 main 2503 2458 __P___________ -1 21.4925 160.937 0 21 1001 9 335
1971255N17158 1971 116 WP MM NOT_NAMED 1971-09-14 00:00:00 TS 21.9000 160.700 main 2458 2412 __O___________ -1 21.9000 160.700 1 23 1000 10 333
1971255N17158 1971 116 WP MM NOT_NAMED 1971-09-14 03:00:00 TS 22.3773 160.452 main 2405 2337 __P___________ -1 22.3773 160.452 1 23 1000 11 331
1971255N17158 1971 116 WP MM NOT_NAMED 1971-09-14 06:00:00 TS 22.9000 160.100 main 2337 2261 __O___________ -1 22.9000 160.100 1 23 1000 14 323
1971255N17158 1971 116 WP MM NOT_NAMED 1971-09-14 09:00:00 TS 23.4579 159.558 main 2254 2171 __P___________ -1 23.4579 159.558 1 23 1000 15 317
1971255N17158 1971 116 WP MM NOT_NAMED 1971-09-14 12:00:00 TS 24.0000 159.000 main 2171 2111 __O___________ -1 24.0000 159.000 1 23 1000 13 319
1971255N17158 1971 116 WP MM NOT_NAMED 1971-09-14 15:00:00 TS 24.4497 158.619 main 2111 2052 __P___________ -1 24.4497 158.619 1 21 1001 11 325
1971255N17158 1971 116 WP MM NOT_NAMED 1971-09-14 18:00:00 TS 24.9000 158.300 main 2052 1993 __O___________ -1 24.9000 158.300 0 19 1002 11 329
1971255N17158 1971 116 WP MM NOT_NAMED 1971-09-14 21:00:00 TS 25.4253 157.961 main 1993 1920 __P___________ -1 25.4253 157.961 0 19 1003 13 330
1971255N17158 1971 116 WP MM NOT_NAMED 1971-09-15 00:00:00 TS 26.0000 157.600 main 1920 __O___________ -1 26.0000 157.600 0 19 1004 13 331

Digital Typhoon Data and Search

About IBTrACS Database

This database is a web-friendly format of International Best Track Archive for Climate Stewardship (IBTrACS), a global best track data archive curated by NOAA dating back to 1842.

Updated: 2021-12-03